Data for 04/20/2009

Time Sea-Level Adjusted Pressure Absolute Pressure Temperature Relative Humidity Dew Point   
(mb) (inHg) (mb) (inHg) (C) (F) (%) (C) (F)
00:05 1026 30.3 855 25.25 11.4 52.5 40 -1.7 29
00:10 1026 30.3 855 25.25 11.3 52.3 40 -1.7 29
00:15 1026 30.3 855 25.25 11.2 52.1 41 -1.6 29.2
00:20 1026 30.3 855 25.25 11 51.9 41 -1.6 29.2
00:25 1026 30.3 855 25.25 11 51.7 41 -1.7 29
00:30 1026 30.3 855 25.25 10.9 51.6 42 -1.6 29.1
00:35 1026 30.3 855 25.25 10.8 51.4 42 -1.4 29.4
00:40 1026 30.3 855 25.25 10.5 51 43 -1.3 29.6
00:45 1026 30.3 855 25.25 10.3 50.5 44 -1.3 29.6
00:50 1025 30.27 855 25.25 10.2 50.3 44 -1.4 29.5
00:55 1025 30.27 855 25.25 10.1 50.1 45 -1.2 29.8
01:00 1025 30.27 855 25.25 9.9 49.7 46 -1.2 29.8
01:05 1025 30.27 855 25.25 9.8 49.6 45 -1.6 29
01:10 1025 30.27 854 25.22 9.9 49.8 43 -2 28.4
01:15 1025 30.27 854 25.22 10 50 43 -2 28.3
01:20 1025 30.27 854 25.22 9.9 49.8 43 -2 28.3
01:25 1025 30.27 854 25.22 9.9 49.9 43 -2.1 28.2
01:30 1025 30.27 854 25.22 10 50.1 42 -2.3 27.8
01:35 1025 30.27 854 25.22 10 50 42 -2.2 28.1
01:40 1025 30.27 854 25.22 9.9 49.8 43 -2.2 28.1
01:45 1025 30.27 854 25.22 9.8 49.7 43 -2.2 28
01:50 1025 30.27 854 25.22 9.9 49.7 44 -1.8 28.8
01:55 1025 30.27 854 25.22 9.5 49.1 46 -1.5 29.2
02:00 1025 30.27 854 25.22 9.3 48.7 45 -2.1 28.1
02:05 1025 30.27 855 25.25 9.3 48.7 46 -1.8 28.8
02:10 1025 30.27 855 25.25 9.2 48.5 46 -1.9 28.7
02:15 1025 30.27 854 25.22 9.2 48.5 44 -2.3 27.9
02:20 1025 30.27 854 25.22 9.3 48.8 44 -2.4 27.7
02:25 1025 30.27 854 25.22 9.3 48.8 45 -2.1 28.2
02:30 1025 30.27 854 25.22 9.2 48.5 44 -2.3 27.8
02:35 1025 30.27 854 25.22 9.2 48.5 45 -2.2 28.1
02:40 1025 30.27 854 25.22 8.9 48 46 -2 28.3
02:45 1025 30.27 854 25.22 8.8 47.8 45 -2.5 27.4
02:50 1025 30.27 854 25.22 9.1 48.4 43 -2.6 27.3
02:55 1025 30.27 854 25.22 9.3 48.7 44 -2.4 27.6
03:00 1025 30.27 854 25.22 9.2 48.6 44 -2.3 27.9
03:05 1025 30.27 854 25.22 9.1 48.5 43 -2.6 27.3
03:10 1025 30.27 854 25.22 9.3 48.7 42 -2.9 26.8
03:15 1025 30.27 854 25.22 9.4 49 42 -2.9 26.7
03:20 1025 30.27 854 25.22 9.7 49.4 40 -3.1 26.3
03:25 1025 30.27 854 25.22 9.7 49.5 40 -3.2 26.3
03:30 1025 30.27 854 25.22 9.7 49.5 40 -3.1 26.5
03:35 1025 30.27 854 25.22 9.7 49.4 40 -3.2 26.2
03:40 1025 30.27 854 25.22 9.6 49.3 41 -3 26.7
03:45 1025 30.27 854 25.22 9.5 49 42 -2.7 27.1
03:50 1025 30.27 854 25.22 9.2 48.5 42 -2.9 26.7
03:55 1025 30.27 854 25.22 9 48.2 43 -2.8 27
04:00 1025 30.27 854 25.22 8.8 47.9 44 -2.9 26.8
04:05 1025 30.27 854 25.22 8.7 47.6 44 -2.7 27.1
04:10 1025 30.27 854 25.22 8.6 47.5 44 -3 26.6
04:15 1025 30.27 854 25.22 8.6 47.4 44 -2.9 26.8
04:20 1025 30.27 854 25.22 8.5 47.3 45 -2.8 26.9
04:25 1025 30.27 854 25.22 8.4 47.2 45 -2.9 26.8
04:30 1025 30.27 854 25.22 8.5 47.2 43 -3.3 26.1
04:35 1025 30.27 854 25.22 8.9 48 41 -3.5 25.6
04:40 1025 30.27 854 25.22 9.2 48.6 41 -3.5 25.7
04:45 1025 30.27 854 25.22 9.3 48.7 40 -3.5 25.7
04:50 1025 30.27 854 25.22 9.4 49 40 -3.6 25.6
04:55 1025 30.27 854 25.22 9.5 49.2 40 -3.3 26.1
05:00 1025 30.27 854 25.22 9.4 48.9 40 -3.5 25.7
05:05 1025 30.27 854 25.22 9.4 48.9 40 -3.4 25.9
05:10 1025 30.27 854 25.22 9.3 48.7 41 -3.3 26
05:15 1025 30.27 854 25.22 9.2 48.6 40 -3.5 25.7
05:20 1025 30.27 854 25.22 9.3 48.7 41 -3.3 26.1
05:25 1025 30.27 854 25.22 9 48.3 42 -3.1 26.5
05:30 1025 30.27 854 25.22 8.8 47.9 43 -3.2 26.3
05:35 1025 30.27 854 25.22 8.7 47.7 43 -3 26.5
05:40 1025 30.27 854 25.22 8.6 47.5 44 -3 26.6
05:45 1025 30.27 854 25.22 8.5 47.4 44 -3.1 26.4
05:50 1025 30.27 854 25.22 8.7 47.7 44 -2.8 26.9
05:55 1025 30.27 854 25.22 8 46.5 47 -2.4 27.6
06:00 1025 30.27 854 25.22 7.5 45.4 46 -3.3 26
06:05 1025 30.27 854 25.22 8 46.4 45 -3.2 26.2
06:10 1025 30.27 854 25.22 8.2 46.7 44 -3.3 26.1
06:15 1025 30.27 854 25.22 8.4 47.2 43 -3.3 26.1
06:20 1025 30.27 854 25.22 8.3 47 44 -3.3 26.1
06:25 1025 30.27 854 25.22 8.4 47.1 43 -3.3 26
06:30 1025 30.27 854 25.22 8.5 47.4 43 -3.5 25.8
06:35 1025 30.27 854 25.22 8.6 47.4 43 -3.2 26.3
06:40 1025 30.27 854 25.22 8.4 47.2 42 -3.6 25.6
06:45 1025 30.27 854 25.22 8.7 47.6 42 -3.4 25.8
06:50 1025 30.27 855 25.25 8.6 47.4 43 -3.3 26
06:55 1025 30.27 855 25.25 8.4 47.2 43 -3.3 26.1
07:00 1025 30.27 855 25.25 8.3 46.9 44 -3.2 26.2
07:05 1025 30.27 855 25.25 8 46.5 45 -3.1 26.4
07:10 1025 30.27 855 25.25 7.9 46.2 46 -3.1 26.5
07:15 1025 30.27 855 25.25 7.7 45.8 47 -3 26.5
07:20 1025 30.27 855 25.25 7.6 45.7 47 -3.1 26.5
07:25 1025 30.27 855 25.25 7.9 46.1 47 -2.8 26.9
07:30 1025 30.27 855 25.25 7.9 46.3 47 -2.8 27
07:35 1025 30.27 855 25.25 8 46.3 46 -2.8 27
07:40 1025 30.27 855 25.25 8.1 46.6 46 -2.7 27.1
07:45 1025 30.27 855 25.25 8.2 46.8 47 -2.3 27.8
07:50 1025 30.27 855 25.25 8.3 46.9 48 -2 28.5
07:55 1025 30.27 855 25.25 8.5 47.2 46 -2.4 27.7
08:00 1025 30.27 855 25.25 8.9 47.9 46 -2 28.5
08:05 1026 30.3 855 25.25 9.2 48.6 45 -2.1 28.2
08:10 1026 30.3 855 25.25 9.1 48.5 46 -2 28.5
08:15 1026 30.3 855 25.25 9.2 48.6 46 -1.8 28.8
08:20 1026 30.3 855 25.25 9.1 48.4 46 -1.8 28.8
08:25 1026 30.3 855 25.25 9.3 48.8 47 -1.3 29.6
08:30 1026 30.3 855 25.25 9.2 48.5 49 -1 30.2
08:35 1026 30.3 855 25.25 9.7 49.5 46 -1.4 29.5
08:40 1026 30.3 855 25.25 10.7 51.3 43 -1.2 29.9
08:45 1026 30.3 855 25.25 11.8 53.3 38 -2 28.4
08:50 1026 30.3 855 25.25 12.8 55 37 -1.4 29.4
08:55 1026 30.3 855 25.25 12.8 55.1 37 -1.5 29.3
09:00 1026 30.3 855 25.25 13 55.3 35 -2 28.4
09:05 1026 30.3 855 25.25 13.1 55.5 33 -2.6 27.4
09:10 1026 30.3 855 25.25 13.5 56.4 32 -2.8 27
09:15 1026 30.3 855 25.25 13.1 55.5 32 -3 26.5
09:20 1026 30.3 855 25.25 13.2 55.7 31 -3.5 25.7
09:25 1026 30.3 855 25.25 14 57.1 30 -3.4 25.9
09:30 1026 30.3 855 25.25 14.5 58 30 -2.6 27.3
09:35 1026 30.3 855 25.25 14.1 57.4 30 -3 26.6
09:40 1026 30.3 855 25.25 13.6 56.4 31 -3 26.6
09:45 1026 30.3 855 25.25 14 57.1 30 -3.4 25.9
09:50 1026 30.3 855 25.25 14.8 58.6 29 -3.2 26.2
09:55 1026 30.3 855 25.25 15.7 60.2 27 -3.2 26.2
10:00 1026 30.3 855 25.25 16.1 61 27 -2.7 27.1
10:05 1026 30.3 855 25.25 16.3 61.4 27 -2.8 26.9
10:10 1026 30.3 855 25.25 16.6 61.9 27 -2.6 27.4
10:15 1026 30.3 855 25.25 16.5 61.7 27 -2.6 27.4
10:20 1026 30.3 855 25.25 16.9 62.3 26 -2.7 27.1
10:25 1026 30.3 855 25.25 16.8 62.2 27 -2.5 27.6
10:30 1026 30.3 855 25.25 16.9 62.3 26 -2.7 27.2
10:35 1026 30.3 855 25.25 17 62.7 25 -2.8 26.9
10:40 1026 30.3 855 25.25 17.3 63.2 26 -2.1 28.2
10:45 1026 30.3 855 25.25 17.9 64.2 25 -2.4 27.6
10:50 1026 30.3 855 25.25 18.2 64.8 24 -2.6 27.2
10:55 1026 30.3 855 25.25 18.1 64.5 24 -2.7 27.1
11:00 1025 30.27 855 25.25 17.7 63.8 25 -2.4 27.7
11:05 1025 30.27 855 25.25 17.5 63.6 23 -3.5 25.7
11:10 1025 30.27 855 25.25 17.9 64.2 24 -3 26.5
11:15 1026 30.3 855 25.25 18 64.3 24 -2.9 26.8
11:20 1026 30.3 855 25.25 18.5 65.4 23 -3 26.6
11:25 1025 30.27 855 25.25 18.5 65.3 24 -2.1 28.2
11:30 1025 30.27 855 25.25 18.3 65 24 -2.6 27.4
11:35 1025 30.27 855 25.25 18.4 65.1 24 -2.6 27.3
11:40 1025 30.27 854 25.22 18.9 66 24 -2.2 28.1
11:45 1025 30.27 854 25.22 19.4 66.9 20 -3.8 25.2
11:50 1025 30.27 854 25.22 18.5 65.3 24 -2.1 28.2
11:55 1025 30.27 854 25.22 18.3 64.9 23 -3.1 26.5
12:00 1025 30.27 854 25.22 19 66.1 23 -2.6 27.2
12:05 1025 30.27 854 25.22 19 66.2 20 -4.6 23.7
12:10 1025 30.27 854 25.22 18.2 64.8 21 -4.5 23.8
12:15 1025 30.27 854 25.22 18.8 65.8 19 -5.1 22.9
12:20 1025 30.27 854 25.22 19.3 66.8 20 -4.2 24.5
12:25 1025 30.27 854 25.22 19.6 67.3 20 -3.5 25.7
12:30 1025 30.27 854 25.22 20.2 68.3 19 -4.3 24.3
12:35 1025 30.27 854 25.22 19.9 67.9 18 -4.9 23.2
12:40 1025 30.27 854 25.22 19.6 67.3 18 -5.2 22.6
12:45 1025 30.27 854 25.22 19.5 67 17 -6.4 20.6
12:50 1025 30.27 854 25.22 19.6 67.3 17 -6.1 20.9
12:55 1025 30.27 854 25.22 19.7 67.4 18 -5.5 22
13:00 1025 30.27 854 25.22 20 67.9 17 -5.6 22
13:05 1024 30.24 854 25.22 20.1 68.3 17 -5.6 22
13:10 1024 30.24 854 25.22 19.6 67.3 17 -5.9 21.5
13:15 1024 30.24 854 25.22 19.6 67.2 18 -5.4 22.3
13:20 1024 30.24 854 25.22 19.4 66.8 19 -4.8 23.3
13:25 1024 30.24 854 25.22 19.3 66.8 15 -8 17.6
13:30 1024 30.24 853 25.19 19.7 67.5 15 -7.3 18.9
13:35 1024 30.24 853 25.19 19.6 67.3 17 -5.8 21.6
13:40 1024 30.24 853 25.19 19.6 67.3 15 -7.5 18.5
13:45 1024 30.24 853 25.19 19.5 67.1 16 -6.9 19.5
13:50 1024 30.24 853 25.19 19.7 67.5 17 -6 21.3
13:55 1024 30.24 853 25.19 19.9 67.8 16 -6.5 20.4
14:00 1024 30.24 853 25.19 19.7 67.4 16 -6.6 20.2
14:05 1024 30.24 853 25.19 20 67.9 15 -6.9 19.5
14:10 1024 30.24 853 25.19 20.1 68.2 17 -5.8 21.6
14:15 1024 30.24 853 25.19 20.3 68.6 15 -6.7 19.9
14:20 1024 30.24 853 25.19 20.2 68.3 16 -6.3 20.6
14:25 1024 30.24 853 25.19 20.1 68.1 16 -6.7 19.9
14:30 1024 30.24 853 25.19 20.1 68.2 15 -6.8 19.8
14:35 1024 30.24 853 25.19 20.4 68.6 16 -5.9 21.4
14:40 1024 30.24 853 25.19 20.6 69.2 17 -5.5 22.1
14:45 1024 30.24 853 25.19 20.6 69.1 17 -5.5 22.1
14:50 1024 30.24 853 25.19 20.2 68.3 16 -6 21.3
14:55 1024 30.24 853 25.19 20.3 68.5 17 -5.6 22
15:00 1024 30.24 853 25.19 20.4 68.7 15 -6.6 20.1
15:05 1024 30.24 853 25.19 20.7 69.2 17 -5.3 22.4
15:10 1024 30.24 853 25.19 21.1 70.1 16 -5.8 21.5
15:15 1024 30.24 853 25.19 21.1 69.9 15 -6.2 20.9
15:20 1024 30.24 853 25.19 20.7 69.2 17 -4.9 23.1
15:25 1024 30.24 853 25.19 20.4 68.7 17 -5.3 22.5
15:30 1024 30.24 853 25.19 20.7 69.2 17 -5.3 22.4
15:35 1024 30.24 853 25.19 20.9 69.6 17 -4.9 23.2
15:40 1024 30.24 853 25.19 21.4 70.6 16 -5.4 22.2
15:45 1024 30.24 853 25.19 21.4 70.5 16 -5.6 21.9
15:50 1024 30.24 853 25.19 21.2 70.2 17 -4.7 23.6
15:55 1024 30.24 853 25.19 21.3 70.4 16 -5.8 21.6
16:00 1023 30.21 853 25.19 20.8 69.5 15 -6.2 20.8
16:05 1024 30.24 853 25.19 20.8 69.4 16 -6.1 20.9
16:10 1023 30.21 853 25.19 20.9 69.7 16 -6.1 21
16:15 1023 30.21 853 25.19 20.5 68.8 16 -5.7 21.7
16:20 1023 30.21 852 25.16 20.2 68.3 17 -5.8 21.6
16:25 1023 30.21 852 25.16 20.3 68.6 17 -5.8 21.6
16:30 1023 30.21 852 25.16 20.4 68.7 16 -5.8 21.5
16:35 1023 30.21 852 25.16 21 69.7 15 -6.2 20.8
16:40 1023 30.21 852 25.16 21 69.8 16 -5.6 21.9
16:45 1023 30.21 852 25.16 20.6 69.2 17 -5.4 22.4
16:50 1023 30.21 852 25.16 20.8 69.4 16 -6.2 20.9
16:55 1023 30.21 852 25.16 20.9 69.6 17 -4.6 23.6
17:00 1023 30.21 852 25.16 20.8 69.5 15 -6.3 20.7
17:05 1023 30.21 852 25.16 21.3 70.3 15 -6.2 20.8
17:10 1023 30.21 852 25.16 21.1 69.9 16 -6 21.2
17:15 1023 30.21 852 25.16 21 69.7 15 -6.1 21
17:20 1023 30.21 852 25.16 21 69.8 15 -6.3 20.6
17:25 1023 30.21 852 25.16 21.1 69.9 15 -6.5 20.3
17:30 1023 30.21 852 25.16 21.1 70 16 -5.9 21.5
17:35 1023 30.21 852 25.16 21.3 70.3 15 -6 21.2
17:40 1023 30.21 852 25.16 21.2 70.2 16 -5.8 21.5
17:45 1023 30.21 852 25.16 21.3 70.3 15 -6.2 20.9
17:50 1023 30.21 852 25.16 21.3 70.4 15 -6.1 21.1
17:55 1023 30.21 852 25.16 21.4 70.4 16 -5.2 22.7
18:00 1023 30.21 852 25.16 21.5 70.7 15 -5.9 21.5
18:05 1023 30.21 852 25.16 21.3 70.3 15 -6 21.2
18:10 1023 30.21 852 25.16 21.2 70.2 16 -5.8 21.6
18:15 1023 30.21 852 25.16 21.4 70.6 15 -6 21.2
18:20 1023 30.21 852 25.16 21 69.8 15 -6.1 21
18:25 1023 30.21 852 25.16 20.8 69.5 16 -6.1 21
18:30 1023 30.21 852 25.16 20.9 69.6 16 -5.7 21.8
18:35 1023 30.21 852 25.16 20.8 69.5 17 -5.1 22.8
18:40 1023 30.21 852 25.16 20.5 68.9 18 -4.7 23.6
18:45 1023 30.21 852 25.16 20.4 68.7 18 -4.6 23.8
18:50 1023 30.21 852 25.16 20.3 68.6 18 -4.7 23.5
18:55 1023 30.21 852 25.16 20.2 68.4 18 -4.6 23.7
19:00 1023 30.21 852 25.16 20 68.1 18 -5.2 22.7
19:05 1023 30.21 852 25.16 19.9 67.8 18 -5 23
19:10 1023 30.21 852 25.16 19.8 67.7 18 -4.7 23.6
19:15 1023 30.21 852 25.16 19.8 67.6 18 -4.8 23.3
19:20 1023 30.21 852 25.16 19.7 67.5 19 -4.6 23.7
19:25 1023 30.21 852 25.16 19.6 67.2 19 -4.4 24.1
19:30 1023 30.21 852 25.16 19.4 66.9 19 -4.3 24.2
19:35 1023 30.21 852 25.16 19.2 66.6 20 -4.3 24.2
19:40 1023 30.21 852 25.16 19.1 66.3 20 -4.2 24.4
19:45 1023 30.21 852 25.16 18.9 66 20 -4.2 24.4
19:50 1023 30.21 852 25.16 18.6 65.5 20 -4.3 24.2
19:55 1023 30.21 852 25.16 18.5 65.2 21 -4 24.8
20:00 1023 30.21 852 25.16 18.2 64.7 22 -3.7 25.4
20:05 1023 30.21 852 25.16 17.9 64.1 23 -3.5 25.8
20:10 1023 30.21 852 25.16 17.5 63.5 23 -4 24.8
20:15 1023 30.21 852 25.16 17.3 63.1 23 -3.7 25.3
20:20 1023 30.21 852 25.16 17.1 62.7 24 -3.4 25.8
20:25 1023 30.21 852 25.16 16.8 62.2 25 -3.3 26
20:30 1023 30.21 852 25.16 16.6 61.9 25 -3.6 25.5
20:35 1023 30.21 852 25.16 16.4 61.5 25 -3.4 25.9
20:40 1023 30.21 852 25.16 16.2 61.1 27 -2.9 26.8
20:45 1023 30.21 852 25.16 15.9 60.6 27 -3 26.5
20:50 1023 30.21 852 25.16 15.7 60.3 27 -2.9 26.7
20:55 1023 30.21 852 25.16 15.7 60.2 27 -3.3 26
21:00 1023 30.21 853 25.19 15.7 60.3 26 -3.8 25.2
21:05 1023 30.21 853 25.19 15.7 60.2 26 -3.9 25
21:10 1024 30.24 853 25.19 15.7 60.3 25 -4.2 24.5
21:15 1024 30.24 853 25.19 15.2 59.4 32 -1.2 29.9
21:20 1024 30.24 853 25.19 13 55.4 33 -2.8 26.9
21:25 1024 30.24 853 25.19 13.1 55.6 31 -3.7 25.4
21:30 1024 30.24 853 25.19 13.4 56 30 -3.8 25.2
21:35 1024 30.24 853 25.19 13.5 56.4 29 -3.9 24.9
21:40 1024 30.24 853 25.19 13.7 56.7 27 -5 23.1
21:45 1024 30.24 853 25.19 14.1 57.4 28 -4 24.7
21:50 1024 30.24 853 25.19 13.7 56.6 28 -4.5 24
21:55 1024 30.24 853 25.19 13.7 56.7 27 -4.8 23.4
22:00 1024 30.24 853 25.19 14 57.1 27 -4.8 23.4
22:05 1024 30.24 853 25.19 13.9 57 27 -4.6 23.7
22:10 1024 30.24 853 25.19 13.8 56.8 26 -5.1 22.8
22:15 1024 30.24 853 25.19 13.7 56.7 27 -4.9 23.1
22:20 1024 30.24 853 25.19 13.6 56.4 27 -5.2 22.6
22:25 1024 30.24 853 25.19 13.5 56.3 27 -5.2 22.7
22:30 1024 30.24 853 25.19 13.5 56.2 26 -5.4 22.2
22:35 1024 30.24 853 25.19 13.6 56.4 26 -5.7 21.7
22:40 1024 30.24 853 25.19 13.6 56.5 25 -5.8 21.6
22:45 1024 30.24 853 25.19 13.7 56.7 25 -6 21.1
22:50 1024 30.24 853 25.19 13.8 56.9 25 -6 21.2
22:55 1024 30.24 853 25.19 13.9 56.9 25 -5.9 21.3
23:00 1024 30.24 853 25.19 13.9 56.9 25 -5.6 21.9
23:05 1024 30.24 853 25.19 13.3 55.9 30 -3.8 25.2
23:10 1024 30.24 853 25.19 12.2 54 30 -4.8 23.4
23:15 1024 30.24 853 25.19 12.2 53.9 31 -4.5 23.9
23:20 1024 30.24 853 25.19 11.9 53.4 32 -4.4 24
23:25 1024 30.24 853 25.19 11.4 52.4 32 -4.7 23.6
23:30 1024 30.24 853 25.19 11.1 51.9 32 -5 23
23:35 1024 30.24 853 25.19 11.2 52.1 32 -4.7 23.5
23:40 1024 30.24 853 25.19 11.6 52.9 30 -5.3 22.5
23:45 1024 30.24 853 25.19 11.7 53.1 30 -5.2 22.6
23:50 1024 30.24 853 25.19 11.8 53.2 30 -5 22.9
23:55 1024 30.24 853 25.19 11.8 53.2 30 -5.1 22.9
24:00 1024 30.24 853 25.19 11.5 52.8 31 -4.9 23.1